sensor_id;sensor_type;location;lat;lon;timestamp;pressure;altitude;pressure_sealevel;temperature;humidity
55914;BME280;58179;48.776;9.124;2023-04-02T00:02:32;96540.41;;;6.67;100.00
55914;BME280;58179;48.776;9.124;2023-04-02T00:05:39;96543.28;;;6.66;100.00
55914;BME280;58179;48.776;9.124;2023-04-02T00:08:28;96551.41;;;6.64;100.00
55914;BME280;58179;48.776;9.124;2023-04-02T00:11:04;96545.91;;;6.66;100.00
55914;BME280;58179;48.776;9.124;2023-04-02T00:13:38;96551.75;;;6.68;100.00
55914;BME280;58179;48.776;9.124;2023-04-02T00:16:11;96558.31;;;6.70;100.00
55914;BME280;58179;48.776;9.124;2023-04-02T00:18:43;96552.78;;;6.67;100.00
55914;BME280;58179;48.776;9.124;2023-04-02T00:21:14;96556.56;;;6.76;100.00
55914;BME280;58179;48.776;9.124;2023-04-02T00:23:45;96565.72;;;6.73;100.00
55914;BME280;58179;48.776;9.124;2023-04-02T00:26:24;96558.81;;;6.67;100.00
55914;BME280;58179;48.776;9.124;2023-04-02T00:28:55;96569.41;;;6.72;100.00
55914;BME280;58179;48.776;9.124;2023-04-02T00:31:21;96567.81;;;6.71;100.00
55914;BME280;58179;48.776;9.124;2023-04-02T00:33:49;96568.66;;;6.77;100.00
55914;BME280;58179;48.776;9.124;2023-04-02T00:36:18;96565.84;;;6.83;100.00
55914;BME280;58179;48.776;9.124;2023-04-02T00:38:45;96570.50;;;6.76;100.00
55914;BME280;58179;48.776;9.124;2023-04-02T00:41:16;96569.09;;;6.90;100.00
55914;BME280;58179;48.776;9.124;2023-04-02T00:43:46;96574.25;;;6.85;100.00
55914;BME280;58179;48.776;9.124;2023-04-02T00:46:21;96572.44;;;6.86;100.00
55914;BME280;58179;48.776;9.124;2023-04-02T00:48:53;96571.91;;;6.84;100.00
55914;BME280;58179;48.776;9.124;2023-04-02T00:51:27;96571.59;;;6.80;100.00
55914;BME280;58179;48.776;9.124;2023-04-02T00:53:59;96565.84;;;6.83;100.00
55914;BME280;58179;48.776;9.124;2023-04-02T00:56:30;96564.75;;;6.79;100.00
55914;BME280;58179;48.776;9.124;2023-04-02T00:58:57;96572.06;;;6.77;100.00
55914;BME280;58179;48.776;9.124;2023-04-02T01:01:28;96567.88;;;6.76;100.00
55914;BME280;58179;48.776;9.124;2023-04-02T01:04:00;96573.31;;;6.91;100.00
55914;BME280;58179;48.776;9.124;2023-04-02T01:06:29;96573.31;;;6.91;100.00
55914;BME280;58179;48.776;9.124;2023-04-02T01:09:20;96576.03;;;7.02;100.00
55914;BME280;58179;48.776;9.124;2023-04-02T01:12:37;96580.72;;;6.99;100.00
55914;BME280;58179;48.776;9.124;2023-04-02T01:15:14;96579.00;;;6.83;100.00
55914;BME280;58179;48.776;9.124;2023-04-02T01:18:01;96574.63;;;6.94;100.00
55914;BME280;58179;48.776;9.124;2023-04-02T01:23:47;96577.81;;;6.96;100.00
55914;BME280;58179;48.776;9.124;2023-04-02T01:26:28;96582.22;;;6.90;100.00
55914;BME280;58179;48.776;9.124;2023-04-02T01:29:04;96584.75;;;7.07;100.00
55914;BME280;58179;48.776;9.124;2023-04-02T01:31:33;96584.75;;;7.07;100.00
55914;BME280;58179;48.776;9.124;2023-04-02T01:34:02;96589.41;;;7.00;100.00
55914;BME280;58179;48.776;9.124;2023-04-02T01:36:38;96595.94;;;7.19;100.00
55914;BME280;58179;48.776;9.124;2023-04-02T01:39:18;96591.91;;;7.12;100.00
55914;BME280;58179;48.776;9.124;2023-04-02T01:41:50;96594.84;;;7.15;100.00
55914;BME280;58179;48.776;9.124;2023-04-02T01:44:25;96582.41;;;7.06;100.00
55914;BME280;58179;48.776;9.124;2023-04-02T01:46:54;96594.41;;;6.96;100.00
55914;BME280;58179;48.776;9.124;2023-04-02T01:49:23;96588.63;;;6.99;100.00
55914;BME280;58179;48.776;9.124;2023-04-02T01:51:52;96600.91;;;7.16;100.00
55914;BME280;58179;48.776;9.124;2023-04-02T01:54:21;96600.53;;;7.07;100.00
55914;BME280;58179;48.776;9.124;2023-04-02T01:56:48;96606.06;;;7.06;100.00
55914;BME280;58179;48.776;9.124;2023-04-02T01:59:17;96605.28;;;7.05;100.00
55914;BME280;58179;48.776;9.124;2023-04-02T02:01:48;96606.56;;;7.03;100.00
55914;BME280;58179;48.776;9.124;2023-04-02T02:04:17;96609.19;;;7.03;100.00
55914;BME280;58179;48.776;9.124;2023-04-02T02:06:44;96609.78;;;7.10;100.00
55914;BME280;58179;48.776;9.124;2023-04-02T02:09:15;96609.25;;;7.34;100.00
55914;BME280;58179;48.776;9.124;2023-04-02T02:11:44;96611.78;;;7.24;100.00
55914;BME280;58179;48.776;9.124;2023-04-02T02:14:16;96608.78;;;7.16;100.00
55914;BME280;58179;48.776;9.124;2023-04-02T02:16:44;96609.94;;;7.25;100.00
55914;BME280;58179;48.776;9.124;2023-04-02T02:19:21;96620.81;;;7.33;100.00
55914;BME280;58179;48.776;9.124;2023-04-02T02:21:50;96621.06;;;7.32;100.00
55914;BME280;58179;48.776;9.124;2023-04-02T02:24:21;96626.78;;;7.24;100.00
55914;BME280;58179;48.776;9.124;2023-04-02T02:26:52;96624.50;;;7.32;100.00
55914;BME280;58179;48.776;9.124;2023-04-02T02:29:22;96625.19;;;7.23;100.00
55914;BME280;58179;48.776;9.124;2023-04-02T02:31:52;96621.16;;;7.15;100.00
55914;BME280;58179;48.776;9.124;2023-04-02T02:34:30;96631.19;;;7.18;100.00
55914;BME280;58179;48.776;9.124;2023-04-02T02:37:03;96631.94;;;7.14;100.00
55914;BME280;58179;48.776;9.124;2023-04-02T02:39:36;96629.13;;;7.20;100.00
55914;BME280;58179;48.776;9.124;2023-04-02T02:42:09;96634.06;;;7.17;100.00
55914;BME280;58179;48.776;9.124;2023-04-02T02:44:42;96635.66;;;7.18;100.00
55914;BME280;58179;48.776;9.124;2023-04-02T02:47:13;96638.50;;;7.38;100.00
55914;BME280;58179;48.776;9.124;2023-04-02T02:49:43;96644.19;;;7.30;100.00
55914;BME280;58179;48.776;9.124;2023-04-02T02:52:15;96645.28;;;7.29;100.00
55914;BME280;58179;48.776;9.124;2023-04-02T02:54:46;96656.28;;;7.26;100.00
55914;BME280;58179;48.776;9.124;2023-04-02T02:57:16;96652.28;;;7.23;100.00
55914;BME280;58179;48.776;9.124;2023-04-02T02:59:44;96654.09;;;7.18;100.00
55914;BME280;58179;48.776;9.124;2023-04-02T03:02:11;96651.47;;;7.18;100.00
55914;BME280;58179;48.776;9.124;2023-04-02T03:04:40;96650.91;;;7.16;100.00
55914;BME280;58179;48.776;9.124;2023-04-02T03:07:12;96659.59;;;7.16;100.00
55914;BME280;58179;48.776;9.124;2023-04-02T03:09:48;96663.03;;;7.17;100.00
55914;BME280;58179;48.776;9.124;2023-04-02T03:12:34;96659.59;;;7.16;100.00
55914;BME280;58179;48.776;9.124;2023-04-02T03:15:14;96670.06;;;7.11;100.00
55914;BME280;58179;48.776;9.124;2023-04-02T03:17:46;96678.44;;;7.08;100.00
55914;BME280;58179;48.776;9.124;2023-04-02T03:20:21;96680.56;;;7.06;100.00
55914;BME280;58179;48.776;9.124;2023-04-02T03:22:55;96673.19;;;7.08;100.00
55914;BME280;58179;48.776;9.124;2023-04-02T03:25:31;96676.38;;;7.10;100.00
55914;BME280;58179;48.776;9.124;2023-04-02T03:28:05;96682.91;;;7.08;100.00
55914;BME280;58179;48.776;9.124;2023-04-02T03:30:37;96680.22;;;7.03;100.00
55914;BME280;58179;48.776;9.124;2023-04-02T03:33:11;96676.31;;;7.05;100.00
55914;BME280;58179;48.776;9.124;2023-04-02T03:35:45;96688.94;;;7.03;100.00
55914;BME280;58179;48.776;9.124;2023-04-02T03:38:19;96687.66;;;7.06;100.00
55914;BME280;58179;48.776;9.124;2023-04-02T03:40:58;96689.72;;;7.04;100.00
55914;BME280;58179;48.776;9.124;2023-04-02T03:43:30;96691.31;;;7.05;100.00
55914;BME280;58179;48.776;9.124;2023-04-02T03:46:01;96698.19;;;7.06;100.00
55914;BME280;58179;48.776;9.124;2023-04-02T03:48:39;96693.34;;;6.97;100.00
55914;BME280;58179;48.776;9.124;2023-04-02T03:51:13;96696.69;;;6.93;100.00
55914;BME280;58179;48.776;9.124;2023-04-02T03:53:42;96696.94;;;6.91;100.00
55914;BME280;58179;48.776;9.124;2023-04-02T03:56:10;96698.47;;;6.87;100.00
55914;BME280;58179;48.776;9.124;2023-04-02T03:58:46;96700.91;;;6.94;100.00
55914;BME280;58179;48.776;9.124;2023-04-02T04:01:23;96703.50;;;6.89;100.00
55914;BME280;58179;48.776;9.124;2023-04-02T04:03:54;96700.28;;;6.87;100.00
55914;BME280;58179;48.776;9.124;2023-04-02T04:06:26;96704.19;;;6.84;100.00
55914;BME280;58179;48.776;9.124;2023-04-02T04:08:58;96710.25;;;6.85;100.00
55914;BME280;58179;48.776;9.124;2023-04-02T04:11:31;96706.53;;;6.81;100.00
55914;BME280;58179;48.776;9.124;2023-04-02T04:14:02;96715.78;;;6.83;100.00
55914;BME280;58179;48.776;9.124;2023-04-02T04:16:39;96718.16;;;6.85;100.00
55914;BME280;58179;48.776;9.124;2023-04-02T04:19:13;96721.91;;;6.89;100.00
55914;BME280;58179;48.776;9.124;2023-04-02T04:21:45;96722.47;;;6.91;100.00
55914;BME280;58179;48.776;9.124;2023-04-02T04:24:17;96728.75;;;6.90;100.00
55914;BME280;58179;48.776;9.124;2023-04-02T04:26:52;96726.13;;;6.90;100.00
55914;BME280;58179;48.776;9.124;2023-04-02T04:29:32;96733.47;;;6.88;100.00
55914;BME280;58179;48.776;9.124;2023-04-02T04:32:22;96739.09;;;6.96;100.00
55914;BME280;58179;48.776;9.124;2023-04-02T04:34:55;96739.09;;;6.96;100.00
55914;BME280;58179;48.776;9.124;2023-04-02T04:37:29;96747.72;;;6.92;100.00
55914;BME280;58179;48.776;9.124;2023-04-02T04:40:02;96743.25;;;6.92;100.00
55914;BME280;58179;48.776;9.124;2023-04-02T04:42:35;96751.22;;;6.97;100.00
55914;BME280;58179;48.776;9.124;2023-04-02T04:45:10;96753.06;;;6.97;100.00
55914;BME280;58179;48.776;9.124;2023-04-02T04:47:41;96760.38;;;6.95;100.00
55914;BME280;58179;48.776;9.124;2023-04-02T04:50:14;96753.84;;;6.97;100.00
55914;BME280;58179;48.776;9.124;2023-04-02T04:52:42;96766.22;;;6.97;100.00
55914;BME280;58179;48.776;9.124;2023-04-02T04:55:29;96762.53;;;6.98;100.00
55914;BME280;58179;48.776;9.124;2023-04-02T04:58:03;96768.50;;;6.93;100.00
55914;BME280;58179;48.776;9.124;2023-04-02T05:00:41;96775.06;;;6.91;100.00
55914;BME280;58179;48.776;9.124;2023-04-02T05:03:18;96773.47;;;6.90;100.00
55914;BME280;58179;48.776;9.124;2023-04-02T05:05:47;96777.72;;;6.91;100.00
55914;BME280;58179;48.776;9.124;2023-04-02T05:08:23;96780.56;;;6.89;100.00
55914;BME280;58179;48.776;9.124;2023-04-02T05:10:56;96782.88;;;6.86;100.00
55914;BME280;58179;48.776;9.124;2023-04-02T05:13:30;96776.66;;;6.92;100.00
55914;BME280;58179;48.776;9.124;2023-04-02T05:16:08;96788.13;;;7.03;100.00
55914;BME280;58179;48.776;9.124;2023-04-02T05:18:39;96784.94;;;7.00;100.00
55914;BME280;58179;48.776;9.124;2023-04-02T05:21:16;96791.22;;;6.99;100.00
55914;BME280;58179;48.776;9.124;2023-04-02T05:23:49;96793.38;;;7.03;100.00
55914;BME280;58179;48.776;9.124;2023-04-02T05:26:23;96792.28;;;6.98;100.00
55914;BME280;58179;48.776;9.124;2023-04-02T05:28:56;96785.72;;;7.01;100.00
55914;BME280;58179;48.776;9.124;2023-04-02T05:31:27;96790.19;;;7.00;100.00
55914;BME280;58179;48.776;9.124;2023-04-02T05:33:57;96792.28;;;6.98;100.00
55914;BME280;58179;48.776;9.124;2023-04-02T05:36:26;96800.97;;;6.99;100.00
55914;BME280;58179;48.776;9.124;2023-04-02T05:38:57;96795.38;;;6.95;100.00
55914;BME280;58179;48.776;9.124;2023-04-02T05:41:26;96797.56;;;6.98;100.00
55914;BME280;58179;48.776;9.124;2023-04-02T05:44:05;96806.59;;;7.08;100.00
55914;BME280;58179;48.776;9.124;2023-04-02T05:46:39;96813.41;;;7.04;100.00
55914;BME280;58179;48.776;9.124;2023-04-02T05:49:13;96810.81;;;7.09;100.00
55914;BME280;58179;48.776;9.124;2023-04-02T05:51:47;96812.94;;;7.07;100.00
55914;BME280;58179;48.776;9.124;2023-04-02T05:54:21;96807.41;;;7.08;100.00
55914;BME280;58179;48.776;9.124;2023-04-02T05:56:54;96812.44;;;7.10;100.00
55914;BME280;58179;48.776;9.124;2023-04-02T05:59:26;96818.72;;;7.09;100.00
55914;BME280;58179;48.776;9.124;2023-04-02T06:01:57;96819.84;;;7.13;100.00
55914;BME280;58179;48.776;9.124;2023-04-02T06:04:31;96820.38;;;7.15;100.00
55914;BME280;58179;48.776;9.124;2023-04-02T06:07:06;96829.41;;;7.19;100.00
55914;BME280;58179;48.776;9.124;2023-04-02T06:09:39;96838.38;;;7.23;100.00
55914;BME280;58179;48.776;9.124;2023-04-02T06:12:18;96840.31;;;7.27;100.00
55914;BME280;58179;48.776;9.124;2023-04-02T06:14:47;96843.00;;;7.32;100.00
55914;BME280;58179;48.776;9.124;2023-04-02T06:17:15;96848.31;;;7.37;100.00
55914;BME280;58179;48.776;9.124;2023-04-02T06:19:43;96858.38;;;7.41;100.00
55914;BME280;58179;48.776;9.124;2023-04-02T06:22:19;96858.44;;;7.46;100.00
55914;BME280;58179;48.776;9.124;2023-04-02T06:24:52;96856.13;;;7.49;100.00
55914;BME280;58179;48.776;9.124;2023-04-02T06:27:23;96868.56;;;7.54;100.00
55914;BME280;58179;48.776;9.124;2023-04-02T06:29:55;96869.13;;;7.56;100.00
55914;BME280;58179;48.776;9.124;2023-04-02T06:32:24;96870.19;;;7.60;100.00
55914;BME280;58179;48.776;9.124;2023-04-02T06:34:51;96875.78;;;7.63;100.00
55914;BME280;58179;48.776;9.124;2023-04-02T06:37:24;96871.88;;;7.66;100.00
55914;BME280;58179;48.776;9.124;2023-04-02T06:39:54;96886.94;;;7.70;100.00
55914;BME280;58179;48.776;9.124;2023-04-02T06:42:25;96883.50;;;7.70;100.00
55914;BME280;58179;48.776;9.124;2023-04-02T06:44:53;96887.25;;;7.74;100.00
55914;BME280;58179;48.776;9.124;2023-04-02T06:47:27;96894.41;;;7.78;100.00
55914;BME280;58179;48.776;9.124;2023-04-02T06:50:01;96899.22;;;7.82;100.00
55914;BME280;58179;48.776;9.124;2023-04-02T06:52:35;96897.66;;;7.86;100.00
55914;BME280;58179;48.776;9.124;2023-04-02T06:55:22;96895.88;;;7.91;100.00
55914;BME280;58179;48.776;9.124;2023-04-02T06:57:51;96899.94;;;7.99;100.00
55914;BME280;58179;48.776;9.124;2023-04-02T07:00:25;96916.06;;;8.02;100.00
55914;BME280;58179;48.776;9.124;2023-04-02T07:02:55;96915.03;;;8.03;100.00
55914;BME280;58179;48.776;9.124;2023-04-02T07:05:22;96925.63;;;8.08;100.00
55914;BME280;58179;48.776;9.124;2023-04-02T07:07:48;96933.28;;;8.10;100.00
55914;BME280;58179;48.776;9.124;2023-04-02T07:10:16;96926.41;;;8.09;100.00
55914;BME280;58179;48.776;9.124;2023-04-02T07:12:44;96933.53;;;8.08;100.00
55914;BME280;58179;48.776;9.124;2023-04-02T07:15:17;96941.47;;;8.13;100.00
55914;BME280;58179;48.776;9.124;2023-04-02T07:17:45;96941.00;;;8.16;100.00
55914;BME280;58179;48.776;9.124;2023-04-02T07:20:24;96938.41;;;8.22;100.00
55914;BME280;58179;48.776;9.124;2023-04-02T07:22:51;96939.03;;;8.29;100.00
55914;BME280;58179;48.776;9.124;2023-04-02T07:25:19;96946.75;;;8.35;100.00
55914;BME280;58179;48.776;9.124;2023-04-02T07:27:45;96952.91;;;8.41;100.00
55914;BME280;58179;48.776;9.124;2023-04-02T07:30:11;96953.75;;;8.46;100.00
55914;BME280;58179;48.776;9.124;2023-04-02T07:32:37;96956.69;;;8.50;100.00
55914;BME280;58179;48.776;9.124;2023-04-02T07:35:04;96963.88;;;8.54;100.00
55914;BME280;58179;48.776;9.124;2023-04-02T07:37:30;96964.44;;;8.57;100.00
55914;BME280;58179;48.776;9.124;2023-04-02T07:39:56;96968.38;;;8.59;100.00
55914;BME280;58179;48.776;9.124;2023-04-02T07:42:24;96973.66;;;8.59;100.00
55914;BME280;58179;48.776;9.124;2023-04-02T07:44:49;96975.81;;;8.62;100.00
55914;BME280;58179;48.776;9.124;2023-04-02T07:47:16;96972.63;;;8.60;100.00
55914;BME280;58179;48.776;9.124;2023-04-02T07:49:41;96976.88;;;8.61;100.00
55914;BME280;58179;48.776;9.124;2023-04-02T07:52:07;96986.63;;;8.61;100.00
55914;BME280;58179;48.776;9.124;2023-04-02T07:54:33;96981.09;;;8.62;100.00
55914;BME280;58179;48.776;9.124;2023-04-02T07:57:01;96987.16;;;8.63;100.00
55914;BME280;58179;48.776;9.124;2023-04-02T07:59:28;96992.22;;;8.64;100.00
55914;BME280;58179;48.776;9.124;2023-04-02T08:01:54;96998.56;;;8.68;100.00
55914;BME280;58179;48.776;9.124;2023-04-02T08:04:21;96996.13;;;8.62;100.00
55914;BME280;58179;48.776;9.124;2023-04-02T08:06:50;96999.19;;;8.53;100.00
55914;BME280;58179;48.776;9.124;2023-04-02T08:09:17;97008.47;;;8.56;100.00
55914;BME280;58179;48.776;9.124;2023-04-02T08:11:43;97013.25;;;8.59;100.00
55914;BME280;58179;48.776;9.124;2023-04-02T08:14:11;97005.63;;;8.63;100.00
55914;BME280;58179;48.776;9.124;2023-04-02T08:16:50;97009.06;;;8.63;100.00
55914;BME280;58179;48.776;9.124;2023-04-02T08:19:17;97017.78;;;8.64;100.00
55914;BME280;58179;48.776;9.124;2023-04-02T08:21:44;97022.78;;;8.65;100.00
55914;BME280;58179;48.776;9.124;2023-04-02T08:24:10;97024.41;;;8.66;100.00
55914;BME280;58179;48.776;9.124;2023-04-02T08:26:36;97033.13;;;8.67;100.00
55914;BME280;58179;48.776;9.124;2023-04-02T08:29:02;97035.50;;;8.68;100.00
55914;BME280;58179;48.776;9.124;2023-04-02T08:31:28;97035.28;;;8.70;100.00
55914;BME280;58179;48.776;9.124;2023-04-02T08:33:56;97035.81;;;8.72;100.00
55914;BME280;58179;48.776;9.124;2023-04-02T08:36:27;97043.22;;;8.75;100.00
55914;BME280;58179;48.776;9.124;2023-04-02T08:38:54;97044.59;;;8.77;100.00
55914;BME280;58179;48.776;9.124;2023-04-02T08:41:23;97050.16;;;8.81;100.00
55914;BME280;58179;48.776;9.124;2023-04-02T08:44:38;97046.00;;;8.85;100.00
55914;BME280;58179;48.776;9.124;2023-04-02T08:47:08;97053.16;;;8.89;100.00
55914;BME280;58179;48.776;9.124;2023-04-02T08:49:41;97047.69;;;8.96;100.00
55914;BME280;58179;48.776;9.124;2023-04-02T08:52:21;97056.72;;;9.00;100.00
55914;BME280;58179;48.776;9.124;2023-04-02T08:54:49;97056.47;;;9.02;100.00
55914;BME280;58179;48.776;9.124;2023-04-02T08:57:26;97064.13;;;9.03;100.00
55914;BME280;58179;48.776;9.124;2023-04-02T09:00:00;97073.63;;;9.04;100.00
55914;BME280;58179;48.776;9.124;2023-04-02T09:02:38;97073.88;;;9.03;100.00
55914;BME280;58179;48.776;9.124;2023-04-02T09:05:15;97077.31;;;9.03;100.00
55914;BME280;58179;48.776;9.124;2023-04-02T09:07:43;97080.22;;;9.02;100.00
55914;BME280;58179;48.776;9.124;2023-04-02T09:10:13;97083.91;;;9.01;100.00
55914;BME280;58179;48.776;9.124;2023-04-02T09:12:41;97080.94;;;8.97;100.00
55914;BME280;58179;48.776;9.124;2023-04-02T09:15:16;97086.75;;;8.94;100.00
55914;BME280;58179;48.776;9.124;2023-04-02T09:17:55;97083.53;;;8.92;100.00
55914;BME280;58179;48.776;9.124;2023-04-02T09:20:26;97094.59;;;8.89;100.00
55914;BME280;58179;48.776;9.124;2023-04-02T09:22:53;97097.47;;;8.87;100.00
55914;BME280;58179;48.776;9.124;2023-04-02T09:25:23;97106.69;;;8.85;100.00
55914;BME280;58179;48.776;9.124;2023-04-02T09:27:54;97100.84;;;8.83;100.00
55914;BME280;58179;48.776;9.124;2023-04-02T09:30:32;97111.88;;;8.80;100.00
55914;BME280;58179;48.776;9.124;2023-04-02T09:33:02;97112.97;;;8.79;100.00
55914;BME280;58179;48.776;9.124;2023-04-02T09:35:35;97120.31;;;8.77;100.00
55914;BME280;58179;48.776;9.124;2023-04-02T09:38:16;97120.31;;;8.77;100.00
55914;BME280;58179;48.776;9.124;2023-04-02T09:40:48;97125.34;;;8.78;100.00
55914;BME280;58179;48.776;9.124;2023-04-02T09:43:17;97127.19;;;8.78;100.00
55914;BME280;58179;48.776;9.124;2023-04-02T09:45:54;97126.69;;;8.81;100.00
55914;BME280;58179;48.776;9.124;2023-04-02T09:48:26;97139.41;;;8.84;100.00
55914;BME280;58179;48.776;9.124;2023-04-02T09:51:23;97144.97;;;8.87;100.00
55914;BME280;58179;48.776;9.124;2023-04-02T09:53:51;97141.63;;;8.92;100.00
55914;BME280;58179;48.776;9.124;2023-04-02T09:56:31;97143.50;;;8.97;100.00
55914;BME280;58179;48.776;9.124;2023-04-02T09:59:03;97140.66;;;9.03;100.00
55914;BME280;58179;48.776;9.124;2023-04-02T10:01:31;97153.94;;;9.08;100.00
55914;BME280;58179;48.776;9.124;2023-04-02T10:03:59;97160.09;;;9.14;100.00
55914;BME280;58179;48.776;9.124;2023-04-02T10:06:29;97156.69;;;9.18;100.00
55914;BME280;58179;48.776;9.124;2023-04-02T10:08:57;97157.28;;;9.25;100.00
55914;BME280;58179;48.776;9.124;2023-04-02T10:11:26;97164.78;;;9.33;100.00
55914;BME280;58179;48.776;9.124;2023-04-02T10:13:59;97163.81;;;9.40;100.00
55914;BME280;58179;48.776;9.124;2023-04-02T10:16:28;97167.28;;;9.45;100.00
55914;BME280;58179;48.776;9.124;2023-04-02T10:19:01;97165.25;;;9.52;100.00
55914;BME280;58179;48.776;9.124;2023-04-02T10:21:36;97162.44;;;9.64;100.00
55914;BME280;58179;48.776;9.124;2023-04-02T10:24:10;97167.03;;;9.74;100.00
55914;BME280;58179;48.776;9.124;2023-04-02T10:26:52;97167.63;;;9.81;100.00
55914;BME280;58179;48.776;9.124;2023-04-02T10:29:47;97173.53;;;9.93;100.00
55914;BME280;58179;48.776;9.124;2023-04-02T10:32:19;97172.56;;;9.99;100.00
55914;BME280;58179;48.776;9.124;2023-04-02T10:34:55;97169.69;;;10.05;100.00
55914;BME280;58179;48.776;9.124;2023-04-02T10:38:23;97171.06;;;10.13;100.00
55914;BME280;58179;48.776;9.124;2023-04-02T10:40:57;97174.56;;;10.19;100.00
55914;BME280;58179;48.776;9.124;2023-04-02T10:43:46;97183.13;;;10.31;100.00
55914;BME280;58179;48.776;9.124;2023-04-02T10:46:20;97188.69;;;10.29;100.00
55914;BME280;58179;48.776;9.124;2023-04-02T10:48:59;97192.16;;;10.35;100.00
55914;BME280;58179;48.776;9.124;2023-04-02T10:51:36;97193.75;;;10.36;100.00
55914;BME280;58179;48.776;9.124;2023-04-02T10:54:20;97192.44;;;10.38;100.00
55914;BME280;58179;48.776;9.124;2023-04-02T10:56:50;97195.63;;;10.40;100.00
55914;BME280;58179;48.776;9.124;2023-04-02T10:59:21;97195.66;;;10.45;100.00
55914;BME280;58179;48.776;9.124;2023-04-02T11:01:50;97200.75;;;10.52;100.00
55914;BME280;58179;48.776;9.124;2023-04-02T11:04:21;97201.81;;;10.56;100.00
55914;BME280;58179;48.776;9.124;2023-04-02T11:06:52;97210.84;;;10.60;100.00
55914;BME280;58179;48.776;9.124;2023-04-02T11:09:24;97209.03;;;10.66;100.00
55914;BME280;58179;48.776;9.124;2023-04-02T11:11:55;97204.03;;;10.69;100.00
55914;BME280;58179;48.776;9.124;2023-04-02T11:14:24;97211.97;;;10.69;100.00
55914;BME280;58179;48.776;9.124;2023-04-02T11:16:56;97210.38;;;10.68;100.00
55914;BME280;58179;48.776;9.124;2023-04-02T11:19:27;97213.78;;;10.64;100.00
55914;BME280;58179;48.776;9.124;2023-04-02T11:21:55;97211.69;;;10.66;100.00
55914;BME280;58179;48.776;9.124;2023-04-02T11:24:32;97221.22;;;10.67;100.00
55914;BME280;58179;48.776;9.124;2023-04-02T11:27:12;97224.94;;;10.66;100.00
55914;BME280;58179;48.776;9.124;2023-04-02T11:29:41;97228.09;;;10.68;100.00
55914;BME280;58179;48.776;9.124;2023-04-02T11:32:38;97232.00;;;10.60;100.00
55914;BME280;58179;48.776;9.124;2023-04-02T11:35:36;97232.22;;;10.54;100.00
55914;BME280;58179;48.776;9.124;2023-04-02T11:38:57;97225.97;;;10.65;100.00
55914;BME280;58179;48.776;9.124;2023-04-02T11:42:04;97232.91;;;10.76;100.00
55914;BME280;58179;48.776;9.124;2023-04-02T11:44:31;97234.00;;;10.80;100.00
55914;BME280;58179;48.776;9.124;2023-04-02T11:47:18;97238.84;;;10.88;100.00
55914;BME280;58179;48.776;9.124;2023-04-02T11:50:03;97239.41;;;10.95;100.00
55914;BME280;58179;48.776;9.124;2023-04-02T11:52:50;97236.53;;;11.07;100.00
55914;BME280;58179;48.776;9.124;2023-04-02T11:55:29;97244.78;;;11.10;100.00
55914;BME280;58179;48.776;9.124;2023-04-02T11:58:27;97238.44;;;11.16;100.00
55914;BME280;58179;48.776;9.124;2023-04-02T12:01:28;97242.75;;;11.28;100.00
55914;BME280;58179;48.776;9.124;2023-04-02T12:10:23;97252.13;;;11.55;100.00
55914;BME280;58179;48.776;9.124;2023-04-02T12:12:52;97252.63;;;11.47;100.00
55914;BME280;58179;48.776;9.124;2023-04-02T12:15:43;97257.91;;;11.47;100.00
55914;BME280;58179;48.776;9.124;2023-04-02T12:18:15;97257.72;;;11.64;100.00
55914;BME280;58179;48.776;9.124;2023-04-02T12:20:48;97257.13;;;11.47;100.00
55914;BME280;58179;48.776;9.124;2023-04-02T12:23:21;97252.13;;;11.55;100.00
55914;BME280;58179;48.776;9.124;2023-04-02T12:25:56;97265.06;;;11.47;100.00
55914;BME280;58179;48.776;9.124;2023-04-02T12:28:24;97265.59;;;11.44;100.00
55914;BME280;58179;48.776;9.124;2023-04-02T12:31:03;97257.13;;;11.52;100.00
55914;BME280;58179;48.776;9.124;2023-04-02T12:33:32;97260.63;;;11.57;100.00
55914;BME280;58179;48.776;9.124;2023-04-02T12:36:03;97257.72;;;11.64;100.00
55914;BME280;58179;48.776;9.124;2023-04-02T12:38:35;97264.84;;;11.58;100.00
55914;BME280;58179;48.776;9.124;2023-04-02T12:41:14;97262.22;;;11.69;100.00
55914;BME280;58179;48.776;9.124;2023-04-02T12:43:44;97270.19;;;11.74;100.00
55914;BME280;58179;48.776;9.124;2023-04-02T12:46:15;97273.16;;;11.82;100.00
55914;BME280;58179;48.776;9.124;2023-04-02T12:48:42;97275.31;;;11.85;100.00
55914;BME280;58179;48.776;9.124;2023-04-02T12:51:09;97275.84;;;11.87;100.00
55914;BME280;58179;48.776;9.124;2023-04-02T12:53:39;97277.72;;;11.87;100.00
55914;BME280;58179;48.776;9.124;2023-04-02T12:56:06;97277.97;;;11.85;100.00
55914;BME280;58179;48.776;9.124;2023-04-02T12:58:42;97281.38;;;11.81;100.00
55914;BME280;58179;48.776;9.124;2023-04-02T13:01:21;97284.25;;;11.69;100.00
55914;BME280;58179;48.776;9.124;2023-04-02T13:04:00;97286.34;;;11.57;100.00
55914;BME280;58179;48.776;9.124;2023-04-02T13:06:27;97286.53;;;11.50;100.00
55914;BME280;58179;48.776;9.124;2023-04-02T13:08:55;97288.63;;;11.38;100.00
55914;BME280;58179;48.776;9.124;2023-04-02T13:11:22;97281.41;;;11.29;100.00
55914;BME280;58179;48.776;9.124;2023-04-02T13:14:00;97291.44;;;11.21;100.00
55914;BME280;58179;48.776;9.124;2023-04-02T13:16:34;97288.22;;;11.14;100.00
55914;BME280;58179;48.776;9.124;2023-04-02T13:19:28;97298.47;;;11.01;100.00
55914;BME280;58179;48.776;9.124;2023-04-02T13:21:57;97297.91;;;10.94;100.00
55914;BME280;58179;48.776;9.124;2023-04-02T13:24:25;97293.88;;;10.86;100.00
55914;BME280;58179;48.776;9.124;2023-04-02T13:26:55;97301.25;;;10.79;100.00
55914;BME280;58179;48.776;9.124;2023-04-02T13:29:27;97301.97;;;10.69;100.00
55914;BME280;58179;48.776;9.124;2023-04-02T13:31:57;97310.69;;;10.65;100.00
55914;BME280;58179;48.776;9.124;2023-04-02T13:34:24;97311.16;;;10.57;100.00
55914;BME280;58179;48.776;9.124;2023-04-02T13:36:50;97315.59;;;10.51;100.00
55914;BME280;58179;48.776;9.124;2023-04-02T13:39:16;97324.00;;;10.43;100.00
55914;BME280;58179;48.776;9.124;2023-04-02T13:41:44;97321.00;;;10.34;100.00